Terminal Aerodrome Forecast
Issued by NWS Melbourne, FL

Home | Current Version | Previous Version | Text Only | Print | Product List | Glossary On
Versions: 1 2 3 4 5 6 7 8 9 10 11 12 13 14 15
523
FTUS42 KMLB 171126
TAFVRB
TAF
KVRB 171126Z 1712/1812 VRB03KT 3SM BR SCT250
      TEMPO 1712/1713 1SM BR
     FM171300 08005KT P6SM FEW030 SCT250
     FM171500 11009KT P6SM SCT035 SCT250
     FM180000 13005KT P6SM FEW035 SCT250
      TEMPO 1809/1812 3SM BR SCT004=

USA.gov is the U.S. government's official web portal to all federal, state and local government web resources and services.